sensor_id;sensor_type;location;lat;lon;timestamp;pressure;altitude;pressure_sealevel;temperature;humidity
72336;BME280;65062;48.446;8.834;2023-04-10T00:01:37;98117.09;;;0.84;88.37
72336;BME280;65062;48.446;8.834;2023-04-10T00:04:38;98111.28;;;0.70;87.76
72336;BME280;65062;48.446;8.834;2023-04-10T00:07:38;98123.13;;;0.72;87.96
72336;BME280;65062;48.446;8.834;2023-04-10T00:10:38;98111.72;;;0.64;87.75
72336;BME280;65062;48.446;8.834;2023-04-10T00:13:39;98107.31;;;0.53;88.26
72336;BME280;65062;48.446;8.834;2023-04-10T00:16:39;98113.53;;;0.51;88.06
72336;BME280;65062;48.446;8.834;2023-04-10T00:19:40;98109.22;;;0.39;88.08
72336;BME280;65062;48.446;8.834;2023-04-10T00:22:40;98109.66;;;0.33;88.23
72336;BME280;65062;48.446;8.834;2023-04-10T00:25:41;98102.47;;;0.25;89.06
72336;BME280;65062;48.446;8.834;2023-04-10T00:28:42;98098.91;;;0.15;87.63
72336;BME280;65062;48.446;8.834;2023-04-10T00:31:42;98093.06;;;0.00;88.37
72336;BME280;65062;48.446;8.834;2023-04-10T00:34:43;98096.47;;;0.01;89.17
72336;BME280;65062;48.446;8.834;2023-04-10T00:37:43;98085.34;;;0.13;89.81
72336;BME280;65062;48.446;8.834;2023-04-10T00:40:43;98081.88;;;0.25;89.69
72336;BME280;65062;48.446;8.834;2023-04-10T00:43:44;98082.06;;;0.35;89.59
72336;BME280;65062;48.446;8.834;2023-04-10T00:46:45;98078.78;;;0.33;88.98
72336;BME280;65062;48.446;8.834;2023-04-10T00:49:45;98076.34;;;0.19;88.85
72336;BME280;65062;48.446;8.834;2023-04-10T00:52:47;98074.88;;;0.27;89.03
72336;BME280;65062;48.446;8.834;2023-04-10T00:55:48;98072.63;;;0.23;89.36
72336;BME280;65062;48.446;8.834;2023-04-10T00:58:49;98072.75;;;0.21;89.29
72336;BME280;65062;48.446;8.834;2023-04-10T01:01:49;98078.81;;;0.20;88.91
72336;BME280;65062;48.446;8.834;2023-04-10T01:04:50;98084.75;;;-0.03;89.03
72336;BME280;65062;48.446;8.834;2023-04-10T01:11:10;98088.59;;;0.15;89.45
72336;BME280;65062;48.446;8.834;2023-04-10T01:14:26;98090.38;;;0.15;89.28
72336;BME280;65062;48.446;8.834;2023-04-10T01:18:01;98087.81;;;0.02;88.94
72336;BME280;65062;48.446;8.834;2023-04-10T01:21:04;98085.56;;;-0.03;89.14
72336;BME280;65062;48.446;8.834;2023-04-10T01:24:18;98086.81;;;-0.08;89.21
72336;BME280;65062;48.446;8.834;2023-04-10T01:27:43;98084.34;;;-0.22;89.16
72336;BME280;65062;48.446;8.834;2023-04-10T01:30:51;98087.53;;;-0.19;89.61
72336;BME280;65062;48.446;8.834;2023-04-10T01:33:57;98088.78;;;-0.24;89.77
72336;BME280;65062;48.446;8.834;2023-04-10T01:37:01;98084.47;;;-0.24;89.66
72336;BME280;65062;48.446;8.834;2023-04-10T01:40:07;98078.88;;;-0.18;89.48
72336;BME280;65062;48.446;8.834;2023-04-10T01:43:09;98078.28;;;-0.21;89.71
72336;BME280;65062;48.446;8.834;2023-04-10T01:46:10;98073.34;;;-0.24;89.56
72336;BME280;65062;48.446;8.834;2023-04-10T01:49:12;98077.59;;;-0.36;89.56
72336;BME280;65062;48.446;8.834;2023-04-10T01:52:14;98072.84;;;-0.42;89.75
72336;BME280;65062;48.446;8.834;2023-04-10T01:55:15;98075.22;;;-0.39;90.03
72336;BME280;65062;48.446;8.834;2023-04-10T01:58:15;98080.97;;;-0.35;89.21
72336;BME280;65062;48.446;8.834;2023-04-10T02:01:20;98075.84;;;-0.48;89.51
72336;BME280;65062;48.446;8.834;2023-04-10T02:04:20;98074.81;;;-0.33;89.83
72336;BME280;65062;48.446;8.834;2023-04-10T02:07:36;98073.97;;;-0.33;89.27
72336;BME280;65062;48.446;8.834;2023-04-10T02:10:55;98076.44;;;-0.44;89.47
72336;BME280;65062;48.446;8.834;2023-04-10T02:14:00;98063.81;;;-0.47;89.70
72336;BME280;65062;48.446;8.834;2023-04-10T02:17:03;98066.28;;;-0.58;89.61
72336;BME280;65062;48.446;8.834;2023-04-10T02:20:05;98072.22;;;-0.45;90.31
72336;BME280;65062;48.446;8.834;2023-04-10T02:23:06;98069.69;;;-0.58;90.42
72336;BME280;65062;48.446;8.834;2023-04-10T02:26:08;98069.16;;;-0.63;90.48
72336;BME280;65062;48.446;8.834;2023-04-10T02:29:08;98072.53;;;-0.50;90.43
72336;BME280;65062;48.446;8.834;2023-04-10T02:32:09;98075.00;;;-0.48;90.05
72336;BME280;65062;48.446;8.834;2023-04-10T02:35:10;98076.69;;;-0.47;89.95
72336;BME280;65062;48.446;8.834;2023-04-10T02:38:11;98082.13;;;-0.52;89.97
72336;BME280;65062;48.446;8.834;2023-04-10T02:41:11;98078.41;;;-0.60;89.84
72336;BME280;65062;48.446;8.834;2023-04-10T02:44:12;98098.94;;;-0.60;89.97
72336;BME280;65062;48.446;8.834;2023-04-10T02:47:13;98089.63;;;-0.49;90.13
72336;BME280;65062;48.446;8.834;2023-04-10T02:50:13;98097.25;;;-0.47;89.56
72336;BME280;65062;48.446;8.834;2023-04-10T02:53:14;98096.09;;;-0.56;89.77
72336;BME280;65062;48.446;8.834;2023-04-10T02:56:15;98097.22;;;-0.60;89.43
72336;BME280;65062;48.446;8.834;2023-04-10T02:59:15;98093.31;;;-0.65;89.51
72336;BME280;65062;48.446;8.834;2023-04-10T03:02:16;98091.03;;;-0.70;89.83
72336;BME280;65062;48.446;8.834;2023-04-10T03:05:17;98090.03;;;-0.55;89.93
72336;BME280;65062;48.446;8.834;2023-04-10T03:08:17;98077.69;;;-0.62;89.87
72336;BME280;65062;48.446;8.834;2023-04-10T03:11:17;98077.16;;;-0.67;89.82
72336;BME280;65062;48.446;8.834;2023-04-10T03:14:18;98074.19;;;-0.74;89.89
72336;BME280;65062;48.446;8.834;2023-04-10T03:17:18;98076.03;;;-0.76;89.91
72336;BME280;65062;48.446;8.834;2023-04-10T03:20:19;98066.16;;;-0.82;90.06
72336;BME280;65062;48.446;8.834;2023-04-10T03:23:19;98065.53;;;-0.85;89.97
72336;BME280;65062;48.446;8.834;2023-04-10T03:26:20;98064.09;;;-0.89;90.11
72336;BME280;65062;48.446;8.834;2023-04-10T03:29:23;98057.31;;;-0.78;90.22
72336;BME280;65062;48.446;8.834;2023-04-10T03:32:23;98058.78;;;-0.74;89.87
72336;BME280;65062;48.446;8.834;2023-04-10T03:35:23;98065.03;;;-0.65;89.97
72336;BME280;65062;48.446;8.834;2023-04-10T03:38:24;98059.28;;;-0.69;89.63
72336;BME280;65062;48.446;8.834;2023-04-10T03:41:24;98052.91;;;-0.76;89.49
72336;BME280;65062;48.446;8.834;2023-04-10T03:44:25;98058.34;;;-0.80;89.17
72336;BME280;65062;48.446;8.834;2023-04-10T03:47:26;98056.19;;;-0.86;89.35
72336;BME280;65062;48.446;8.834;2023-04-10T03:50:26;98057.22;;;-0.89;88.91
72336;BME280;65062;48.446;8.834;2023-04-10T03:53:27;98056.69;;;-0.94;90.18
72336;BME280;65062;48.446;8.834;2023-04-10T03:56:27;98049.06;;;-0.95;90.17
72336;BME280;65062;48.446;8.834;2023-04-10T03:59:27;98046.81;;;-1.00;90.41
72336;BME280;65062;48.446;8.834;2023-04-10T04:02:28;98036.97;;;-0.93;90.30
72336;BME280;65062;48.446;8.834;2023-04-10T04:05:28;98036.38;;;-0.84;90.29
72336;BME280;65062;48.446;8.834;2023-04-10T04:08:29;98027.94;;;-0.86;90.19
72336;BME280;65062;48.446;8.834;2023-04-10T04:11:30;98025.75;;;-0.92;89.02
72336;BME280;65062;48.446;8.834;2023-04-10T04:14:30;98013.22;;;-1.09;88.37
72336;BME280;65062;48.446;8.834;2023-04-10T04:17:30;98024.25;;;-1.34;89.46
72336;BME280;65062;48.446;8.834;2023-04-10T04:20:31;98018.81;;;-1.29;89.79
72336;BME280;65062;48.446;8.834;2023-04-10T04:23:31;98016.53;;;-1.34;89.75
72336;BME280;65062;48.446;8.834;2023-04-10T04:26:32;98027.03;;;-1.37;89.59
72336;BME280;65062;48.446;8.834;2023-04-10T04:29:32;98034.94;;;-1.40;89.43
72336;BME280;65062;48.446;8.834;2023-04-10T04:32:33;98035.47;;;-1.61;89.51
72336;BME280;65062;48.446;8.834;2023-04-10T04:35:33;98040.00;;;-1.65;90.51
72336;BME280;65062;48.446;8.834;2023-04-10T04:38:33;98035.00;;;-1.54;91.29
72336;BME280;65062;48.446;8.834;2023-04-10T04:41:34;98032.97;;;-1.49;91.49
72336;BME280;65062;48.446;8.834;2023-04-10T04:44:34;98027.34;;;-1.41;91.83
72336;BME280;65062;48.446;8.834;2023-04-10T04:47:35;98032.28;;;-1.38;92.12
72336;BME280;65062;48.446;8.834;2023-04-10T04:50:35;98022.03;;;-1.26;91.75
72336;BME280;65062;48.446;8.834;2023-04-10T04:53:35;98024.72;;;-1.15;91.59
72336;BME280;65062;48.446;8.834;2023-04-10T04:56:36;98035.81;;;-1.14;91.51
72336;BME280;65062;48.446;8.834;2023-04-10T04:59:36;98045.28;;;-1.02;90.92
72336;BME280;65062;48.446;8.834;2023-04-10T05:02:37;98048.97;;;-0.94;90.71
72336;BME280;65062;48.446;8.834;2023-04-10T05:05:38;98053.13;;;-0.91;90.71
72336;BME280;65062;48.446;8.834;2023-04-10T05:08:39;98046.09;;;-0.89;90.39
72336;BME280;65062;48.446;8.834;2023-04-10T05:11:39;98050.66;;;-0.93;90.50
72336;BME280;65062;48.446;8.834;2023-04-10T05:14:40;98048.28;;;-0.83;90.19
72336;BME280;65062;48.446;8.834;2023-04-10T05:17:40;98050.31;;;-0.88;90.34
72336;BME280;65062;48.446;8.834;2023-04-10T05:20:40;98054.66;;;-0.76;89.97
72336;BME280;65062;48.446;8.834;2023-04-10T05:23:41;98054.47;;;-0.61;90.01
72336;BME280;65062;48.446;8.834;2023-04-10T05:26:41;98050.31;;;-0.63;89.36
72336;BME280;65062;48.446;8.834;2023-04-10T05:29:42;98053.53;;;-0.47;88.83
72336;BME280;65062;48.446;8.834;2023-04-10T05:32:42;98059.38;;;-0.45;89.03
72336;BME280;65062;48.446;8.834;2023-04-10T05:35:42;98054.22;;;-0.45;89.11
72336;BME280;65062;48.446;8.834;2023-04-10T05:38:43;98055.16;;;-0.34;88.37
72336;BME280;65062;48.446;8.834;2023-04-10T05:41:43;98063.28;;;-0.27;88.37
72336;BME280;65062;48.446;8.834;2023-04-10T05:44:43;98059.56;;;-0.23;87.94
72336;BME280;65062;48.446;8.834;2023-04-10T05:47:44;98064.28;;;-0.17;87.99
72336;BME280;65062;48.446;8.834;2023-04-10T05:50:45;98056.19;;;-0.24;87.89
72336;BME280;65062;48.446;8.834;2023-04-10T05:53:45;98066.84;;;-0.17;87.20
72336;BME280;65062;48.446;8.834;2023-04-10T05:56:46;98057.78;;;-0.10;87.58
72336;BME280;65062;48.446;8.834;2023-04-10T05:59:46;98060.63;;;0.11;86.87
72336;BME280;65062;48.446;8.834;2023-04-10T06:02:46;98063.59;;;0.17;86.70
72336;BME280;65062;48.446;8.834;2023-04-10T06:05:47;98065.00;;;0.21;85.98
72336;BME280;65062;48.446;8.834;2023-04-10T06:08:48;98068.91;;;0.27;86.26
72336;BME280;65062;48.446;8.834;2023-04-10T06:11:48;98066.00;;;0.31;86.26
72336;BME280;65062;48.446;8.834;2023-04-10T06:14:49;98059.31;;;0.41;85.96
72336;BME280;65062;48.446;8.834;2023-04-10T06:17:49;98058.28;;;0.55;85.70
72336;BME280;65062;48.446;8.834;2023-04-10T06:20:50;98059.22;;;0.54;85.15
72336;BME280;65062;48.446;8.834;2023-04-10T06:23:50;98059.97;;;0.56;85.65
72336;BME280;65062;48.446;8.834;2023-04-10T06:26:50;98063.72;;;0.63;85.19
72336;BME280;65062;48.446;8.834;2023-04-10T06:29:51;98056.44;;;0.57;85.79
72336;BME280;65062;48.446;8.834;2023-04-10T06:32:51;98057.75;;;0.62;85.45
72336;BME280;65062;48.446;8.834;2023-04-10T06:35:51;98054.94;;;0.65;86.01
72336;BME280;65062;48.446;8.834;2023-04-10T06:38:52;98052.03;;;0.70;85.27
72336;BME280;65062;48.446;8.834;2023-04-10T06:41:52;98050.84;;;0.63;86.04
72336;BME280;65062;48.446;8.834;2023-04-10T06:44:52;98050.09;;;0.73;85.93
72336;BME280;65062;48.446;8.834;2023-04-10T06:47:53;98033.56;;;0.65;85.73
72336;BME280;65062;48.446;8.834;2023-04-10T06:50:53;98036.47;;;0.71;86.05
72336;BME280;65062;48.446;8.834;2023-04-10T06:53:54;98033.91;;;0.71;86.08
72336;BME280;65062;48.446;8.834;2023-04-10T06:56:54;98033.56;;;0.76;86.35
72336;BME280;65062;48.446;8.834;2023-04-10T06:59:57;98019.81;;;0.88;86.48
72336;BME280;65062;48.446;8.834;2023-04-10T07:02:58;98020.03;;;0.96;86.18
72336;BME280;65062;48.446;8.834;2023-04-10T07:05:58;98021.81;;;1.06;86.25
72336;BME280;65062;48.446;8.834;2023-04-10T07:09:01;98026.31;;;1.15;86.03
72336;BME280;65062;48.446;8.834;2023-04-10T07:12:01;98021.28;;;1.36;86.31
72336;BME280;65062;48.446;8.834;2023-04-10T07:15:01;98019.19;;;1.52;85.65
72336;BME280;65062;48.446;8.834;2023-04-10T07:18:02;98028.09;;;1.59;85.55
72336;BME280;65062;48.446;8.834;2023-04-10T07:21:09;98033.16;;;1.93;84.80
72336;BME280;65062;48.446;8.834;2023-04-10T07:24:10;98032.19;;;1.94;85.74
72336;BME280;65062;48.446;8.834;2023-04-10T07:27:10;98033.13;;;2.04;86.10
72336;BME280;65062;48.446;8.834;2023-04-10T07:30:12;98034.69;;;2.39;85.13
72336;BME280;65062;48.446;8.834;2023-04-10T07:33:12;98031.50;;;2.57;84.67
72336;BME280;65062;48.446;8.834;2023-04-10T07:36:12;98025.00;;;2.63;84.44
72336;BME280;65062;48.446;8.834;2023-04-10T07:39:13;98024.50;;;2.69;84.14
72336;BME280;65062;48.446;8.834;2023-04-10T07:42:13;98014.94;;;2.80;84.07
72336;BME280;65062;48.446;8.834;2023-04-10T07:45:14;98018.25;;;3.03;83.13
72336;BME280;65062;48.446;8.834;2023-04-10T07:48:14;98025.38;;;3.31;81.36
72336;BME280;65062;48.446;8.834;2023-04-10T07:51:15;98027.44;;;3.67;81.11
72336;BME280;65062;48.446;8.834;2023-04-10T07:54:15;98020.53;;;3.77;80.26
72336;BME280;65062;48.446;8.834;2023-04-10T07:57:16;98011.69;;;3.79;80.85
72336;BME280;65062;48.446;8.834;2023-04-10T08:00:16;98017.50;;;4.02;79.88
72336;BME280;65062;48.446;8.834;2023-04-10T08:03:17;98011.00;;;4.17;80.71
72336;BME280;65062;48.446;8.834;2023-04-10T08:06:17;98003.41;;;4.44;80.50
72336;BME280;65062;48.446;8.834;2023-04-10T08:09:18;97996.88;;;4.69;80.60
72336;BME280;65062;48.446;8.834;2023-04-10T08:12:18;98000.28;;;4.79;79.81
72336;BME280;65062;48.446;8.834;2023-04-10T08:15:18;97995.22;;;5.06;78.82
72336;BME280;65062;48.446;8.834;2023-04-10T08:18:19;97990.78;;;5.25;77.51
72336;BME280;65062;48.446;8.834;2023-04-10T08:21:20;97992.38;;;5.45;75.69
72336;BME280;65062;48.446;8.834;2023-04-10T08:24:20;97996.25;;;5.78;74.46
72336;BME280;65062;48.446;8.834;2023-04-10T08:27:22;97993.31;;;5.90;73.98
72336;BME280;65062;48.446;8.834;2023-04-10T08:30:22;97978.19;;;6.13;71.65
72336;BME280;65062;48.446;8.834;2023-04-10T08:33:22;97980.94;;;6.29;71.74
72336;BME280;65062;48.446;8.834;2023-04-10T08:36:23;97977.81;;;6.61;69.62
72336;BME280;65062;48.446;8.834;2023-04-10T08:39:23;97978.09;;;6.93;66.40
72336;BME280;65062;48.446;8.834;2023-04-10T08:42:24;97977.59;;;7.15;65.73
72336;BME280;65062;48.446;8.834;2023-04-10T08:45:25;97973.34;;;7.31;64.50
72336;BME280;65062;48.446;8.834;2023-04-10T08:48:46;97983.22;;;7.53;60.08
72336;BME280;65062;48.446;8.834;2023-04-10T08:51:55;97982.41;;;8.20;53.56
72336;BME280;65062;48.446;8.834;2023-04-10T08:54:58;97980.19;;;8.25;57.57
72336;BME280;65062;48.446;8.834;2023-04-10T08:57:59;97980.25;;;8.81;55.41
72336;BME280;65062;48.446;8.834;2023-04-10T09:01:00;97978.09;;;9.41;50.38
72336;BME280;65062;48.446;8.834;2023-04-10T09:04:01;97979.03;;;9.64;49.17
72336;BME280;65062;48.446;8.834;2023-04-10T09:07:01;97971.75;;;9.90;48.94
72336;BME280;65062;48.446;8.834;2023-04-10T09:10:01;97960.88;;;10.17;48.91
72336;BME280;65062;48.446;8.834;2023-04-10T09:13:02;97964.00;;;10.12;49.43
72336;BME280;65062;48.446;8.834;2023-04-10T09:16:03;97956.50;;;10.09;48.25
72336;BME280;65062;48.446;8.834;2023-04-10T09:19:04;97953.28;;;10.30;52.09
72336;BME280;65062;48.446;8.834;2023-04-10T09:22:04;97947.50;;;10.42;47.99
72336;BME280;65062;48.446;8.834;2023-04-10T09:25:05;97933.16;;;10.53;46.95
72336;BME280;65062;48.446;8.834;2023-04-10T09:28:08;97929.16;;;10.65;47.87
72336;BME280;65062;48.446;8.834;2023-04-10T09:31:29;97932.88;;;10.93;49.05
72336;BME280;65062;48.446;8.834;2023-04-10T09:34:30;97918.50;;;11.26;47.75
72336;BME280;65062;48.446;8.834;2023-04-10T09:37:31;97922.09;;;11.40;49.12
72336;BME280;65062;48.446;8.834;2023-04-10T09:40:31;97913.25;;;11.55;48.56
72336;BME280;65062;48.446;8.834;2023-04-10T09:43:32;97911.19;;;11.80;49.09
72336;BME280;65062;48.446;8.834;2023-04-10T09:46:32;97910.06;;;12.03;48.18
72336;BME280;65062;48.446;8.834;2023-04-10T09:49:46;97907.72;;;12.44;42.88
72336;BME280;65062;48.446;8.834;2023-04-10T09:52:56;97897.00;;;12.66;45.53
72336;BME280;65062;48.446;8.834;2023-04-10T09:55:57;97891.22;;;12.99;44.01
72336;BME280;65062;48.446;8.834;2023-04-10T09:58:59;97885.63;;;13.29;41.28
72336;BME280;65062;48.446;8.834;2023-04-10T10:02:00;97874.56;;;13.81;41.37
72336;BME280;65062;48.446;8.834;2023-04-10T10:05:02;97867.66;;;14.27;39.55
72336;BME280;65062;48.446;8.834;2023-04-10T10:08:03;97863.44;;;14.52;38.22
72336;BME280;65062;48.446;8.834;2023-04-10T10:11:05;97853.50;;;14.73;35.96
72336;BME280;65062;48.446;8.834;2023-04-10T10:14:14;97844.38;;;14.96;36.02
72336;BME280;65062;48.446;8.834;2023-04-10T10:17:18;97839.28;;;15.33;37.34
72336;BME280;65062;48.446;8.834;2023-04-10T10:20:23;97838.44;;;15.52;33.76
72336;BME280;65062;48.446;8.834;2023-04-10T10:23:25;97837.91;;;15.81;35.71
72336;BME280;65062;48.446;8.834;2023-04-10T10:26:29;97826.78;;;16.10;33.44
72336;BME280;65062;48.446;8.834;2023-04-10T10:29:31;97825.66;;;16.31;33.14
72336;BME280;65062;48.446;8.834;2023-04-10T10:32:33;97816.84;;;16.75;34.09
72336;BME280;65062;48.446;8.834;2023-04-10T10:35:35;97810.78;;;17.35;34.13
72336;BME280;65062;48.446;8.834;2023-04-10T10:38:37;97797.19;;;17.67;30.66
72336;BME280;65062;48.446;8.834;2023-04-10T10:45:16;97791.81;;;17.74;27.59
72336;BME280;65062;48.446;8.834;2023-04-10T10:48:18;97795.44;;;17.01;26.87
72336;BME280;65062;48.446;8.834;2023-04-10T10:51:18;97789.38;;;16.76;26.52
72336;BME280;65062;48.446;8.834;2023-04-10T10:54:34;97794.53;;;16.89;29.46
72336;BME280;65062;48.446;8.834;2023-04-10T10:57:45;97783.41;;;16.87;30.35
72336;BME280;65062;48.446;8.834;2023-04-10T11:03:49;97788.03;;;16.91;27.89
72336;BME280;65062;48.446;8.834;2023-04-10T11:06:50;97777.31;;;17.22;28.99
72336;BME280;65062;48.446;8.834;2023-04-10T11:09:51;97777.25;;;17.65;24.42
72336;BME280;65062;48.446;8.834;2023-04-10T11:13:15;97778.22;;;17.70;25.12
72336;BME280;65062;48.446;8.834;2023-04-10T11:16:16;97771.34;;;17.51;22.96
72336;BME280;65062;48.446;8.834;2023-04-10T11:19:17;97765.22;;;17.51;24.16
72336;BME280;65062;48.446;8.834;2023-04-10T11:22:19;97757.75;;;17.77;24.06
72336;BME280;65062;48.446;8.834;2023-04-10T11:25:20;97762.94;;;18.13;24.14
72336;BME280;65062;48.446;8.834;2023-04-10T11:31:33;97760.19;;;18.84;21.25
72336;BME280;65062;48.446;8.834;2023-04-10T11:34:42;97752.31;;;19.24;20.31
72336;BME280;65062;48.446;8.834;2023-04-10T11:37:43;97751.13;;;19.54;20.41
72336;BME280;65062;48.446;8.834;2023-04-10T11:40:54;97752.56;;;20.01;19.33
72336;BME280;65062;48.446;8.834;2023-04-10T11:43:55;97758.53;;;20.69;18.27
72336;BME280;65062;48.446;8.834;2023-04-10T11:46:56;97762.00;;;20.87;19.27
72336;BME280;65062;48.446;8.834;2023-04-10T11:49:57;97755.03;;;23.05;16.70
72336;BME280;65062;48.446;8.834;2023-04-10T11:52:57;97743.13;;;23.79;16.00
72336;BME280;65062;48.446;8.834;2023-04-10T11:55:58;97737.38;;;24.57;14.31
72336;BME280;65062;48.446;8.834;2023-04-10T11:58:58;97730.84;;;23.78;14.48
72336;BME280;65062;48.446;8.834;2023-04-10T12:02:06;97717.69;;;25.47;13.43
72336;BME280;65062;48.446;8.834;2023-04-10T12:05:08;97723.16;;;25.80;13.14
72336;BME280;65062;48.446;8.834;2023-04-10T12:08:08;97712.63;;;28.26;11.78
72336;BME280;65062;48.446;8.834;2023-04-10T12:11:09;97713.66;;;27.69;12.52
72336;BME280;65062;48.446;8.834;2023-04-10T12:14:10;97712.50;;;27.33;12.46
72336;BME280;65062;48.446;8.834;2023-04-10T12:17:10;97711.22;;;27.73;12.68
72336;BME280;65062;48.446;8.834;2023-04-10T12:20:14;97710.50;;;26.92;11.97
72336;BME280;65062;48.446;8.834;2023-04-10T12:23:15;97708.91;;;28.22;12.69
72336;BME280;65062;48.446;8.834;2023-04-10T12:26:17;97716.47;;;28.20;11.27
72336;BME280;65062;48.446;8.834;2023-04-10T12:29:17;97707.88;;;28.18;12.12
72336;BME280;65062;48.446;8.834;2023-04-10T12:32:18;97702.13;;;29.21;11.85
72336;BME280;65062;48.446;8.834;2023-04-10T12:35:19;97701.22;;;27.97;12.81
72336;BME280;65062;48.446;8.834;2023-04-10T12:41:36;97696.94;;;24.89;14.74
72336;BME280;65062;48.446;8.834;2023-04-10T12:44:48;97684.28;;;26.21;13.51
72336;BME280;65062;48.446;8.834;2023-04-10T12:47:50;97674.38;;;28.10;12.77
72336;BME280;65062;48.446;8.834;2023-04-10T12:50:53;97673.59;;;27.49;11.78
72336;BME280;65062;48.446;8.834;2023-04-10T12:53:53;97666.84;;;26.52;13.57
72336;BME280;65062;48.446;8.834;2023-04-10T12:56:54;97665.94;;;25.90;13.46
72336;BME280;65062;48.446;8.834;2023-04-10T12:59:55;97671.69;;;26.17;14.84
72336;BME280;65062;48.446;8.834;2023-04-10T13:02:55;97670.50;;;26.33;13.72
72336;BME280;65062;48.446;8.834;2023-04-10T13:05:55;97678.47;;;24.87;14.03
72336;BME280;65062;48.446;8.834;2023-04-10T13:08:56;97651.91;;;25.01;15.56
72336;BME280;65062;48.446;8.834;2023-04-10T13:11:56;97657.97;;;25.41;14.67
72336;BME280;65062;48.446;8.834;2023-04-10T13:14:57;97651.13;;;26.70;14.20
72336;BME280;65062;48.446;8.834;2023-04-10T13:17:59;97644.84;;;27.03;13.36
72336;BME280;65062;48.446;8.834;2023-04-10T13:20:59;97652.84;;;26.56;13.98
72336;BME280;65062;48.446;8.834;2023-04-10T13:24:00;97645.19;;;25.03;15.04
72336;BME280;65062;48.446;8.834;2023-04-10T13:27:00;97645.25;;;23.53;16.44
72336;BME280;65062;48.446;8.834;2023-04-10T13:30:00;97650.66;;;22.23;17.79
72336;BME280;65062;48.446;8.834;2023-04-10T13:33:01;97645.75;;;22.46;16.94
72336;BME280;65062;48.446;8.834;2023-04-10T13:36:01;97646.50;;;22.74;17.17
72336;BME280;65062;48.446;8.834;2023-04-10T13:39:02;97634.47;;;22.66;17.66
72336;BME280;65062;48.446;8.834;2023-04-10T13:42:02;97635.25;;;22.67;17.21
72336;BME280;65062;48.446;8.834;2023-04-10T13:45:03;97629.03;;;22.51;17.40
72336;BME280;65062;48.446;8.834;2023-04-10T13:48:03;97622.66;;;22.57;18.24
72336;BME280;65062;48.446;8.834;2023-04-10T13:51:06;97610.63;;;22.18;16.30
72336;BME280;65062;48.446;8.834;2023-04-10T13:54:07;97617.44;;;22.40;18.13
72336;BME280;65062;48.446;8.834;2023-04-10T13:57:09;97605.22;;;22.96;16.72
72336;BME280;65062;48.446;8.834;2023-04-10T14:00:10;97612.69;;;23.81;17.30
72336;BME280;65062;48.446;8.834;2023-04-10T14:03:11;97601.84;;;23.16;16.09
72336;BME280;65062;48.446;8.834;2023-04-10T14:06:11;97604.25;;;22.55;15.81
72336;BME280;65062;48.446;8.834;2023-04-10T14:09:13;97602.09;;;22.52;15.92
72336;BME280;65062;48.446;8.834;2023-04-10T14:12:13;97588.25;;;22.55;15.38
72336;BME280;65062;48.446;8.834;2023-04-10T14:15:15;97600.00;;;22.23;17.80
72336;BME280;65062;48.446;8.834;2023-04-10T14:18:15;97599.50;;;22.73;15.42
72336;BME280;65062;48.446;8.834;2023-04-10T14:21:17;97583.91;;;23.01;14.89
72336;BME280;65062;48.446;8.834;2023-04-10T14:24:18;97599.00;;;22.76;14.73
72336;BME280;65062;48.446;8.834;2023-04-10T14:27:18;97582.00;;;22.97;14.88
72336;BME280;65062;48.446;8.834;2023-04-10T14:30:18;97586.06;;;23.09;14.27
72336;BME280;65062;48.446;8.834;2023-04-10T14:33:19;97586.09;;;22.57;15.20
72336;BME280;65062;48.446;8.834;2023-04-10T14:36:19;97591.69;;;22.19;15.41
72336;BME280;65062;48.446;8.834;2023-04-10T14:39:23;97585.75;;;22.49;15.97
72336;BME280;65062;48.446;8.834;2023-04-10T14:42:24;97586.22;;;22.83;15.60
72336;BME280;65062;48.446;8.834;2023-04-10T14:45:26;97585.56;;;23.22;14.30
72336;BME280;65062;48.446;8.834;2023-04-10T14:48:26;97576.03;;;23.66;14.55
72336;BME280;65062;48.446;8.834;2023-04-10T14:51:27;97559.91;;;24.77;14.11
72336;BME280;65062;48.446;8.834;2023-04-10T14:54:27;97563.88;;;25.43;12.93
72336;BME280;65062;48.446;8.834;2023-04-10T14:57:28;97561.75;;;25.40;14.35
72336;BME280;65062;48.446;8.834;2023-04-10T15:00:28;97566.97;;;23.77;13.97
72336;BME280;65062;48.446;8.834;2023-04-10T15:03:29;97558.13;;;23.47;14.91
72336;BME280;65062;48.446;8.834;2023-04-10T15:06:32;97555.44;;;22.60;14.63
72336;BME280;65062;48.446;8.834;2023-04-10T15:09:32;97549.53;;;22.11;16.34
72336;BME280;65062;48.446;8.834;2023-04-10T15:12:32;97541.47;;;22.01;16.21
72336;BME280;65062;48.446;8.834;2023-04-10T15:15:33;97533.13;;;22.86;16.73
72336;BME280;65062;48.446;8.834;2023-04-10T15:18:33;97537.28;;;23.89;16.26
72336;BME280;65062;48.446;8.834;2023-04-10T15:21:33;97531.41;;;23.77;15.19
72336;BME280;65062;48.446;8.834;2023-04-10T15:24:33;97526.13;;;22.70;16.91
72336;BME280;65062;48.446;8.834;2023-04-10T15:27:34;97521.09;;;22.22;16.50
72336;BME280;65062;48.446;8.834;2023-04-10T15:30:34;97521.34;;;21.52;18.32
72336;BME280;65062;48.446;8.834;2023-04-10T15:33:35;97525.03;;;20.72;21.27
72336;BME280;65062;48.446;8.834;2023-04-10T15:36:37;97507.50;;;20.32;19.93
72336;BME280;65062;48.446;8.834;2023-04-10T15:39:37;97510.59;;;20.08;19.67
72336;BME280;65062;48.446;8.834;2023-04-10T15:42:37;97513.38;;;19.96;19.76
72336;BME280;65062;48.446;8.834;2023-04-10T15:45:38;97503.13;;;19.88;20.63
72336;BME280;65062;48.446;8.834;2023-04-10T15:48:38;97503.38;;;19.87;21.64
72336;BME280;65062;48.446;8.834;2023-04-10T15:51:38;97504.13;;;19.66;22.33
72336;BME280;65062;48.446;8.834;2023-04-10T15:54:39;97501.72;;;19.64;22.91
72336;BME280;65062;48.446;8.834;2023-04-10T15:57:39;97494.09;;;19.51;22.28
72336;BME280;65062;48.446;8.834;2023-04-10T16:00:39;97495.38;;;19.21;24.01
72336;BME280;65062;48.446;8.834;2023-04-10T16:03:40;97492.03;;;18.97;25.58
72336;BME280;65062;48.446;8.834;2023-04-10T16:06:40;97492.97;;;19.03;24.28
72336;BME280;65062;48.446;8.834;2023-04-10T16:09:40;97483.44;;;18.90;24.40
72336;BME280;65062;48.446;8.834;2023-04-10T16:12:41;97475.94;;;18.71;26.50
72336;BME280;65062;48.446;8.834;2023-04-10T16:15:41;97472.09;;;18.38;25.99
72336;BME280;65062;48.446;8.834;2023-04-10T16:18:41;97471.31;;;18.26;26.23
72336;BME280;65062;48.446;8.834;2023-04-10T16:21:43;97469.13;;;18.23;27.49